Time;durP1;ratioP1;P1;durP2;ratioP2;P2;SDS_P1;SDS_P2;PMS_P1;PMS_P2;Temp;Humidity;BMP_temperature;BMP_pressure;BME280_temperature;BME280_humidity;BME280_pressure;Samples;Min_cycle;Max_cycle;Signal;HPM_P1;HPM_P2
2024/03/19 00:01:36;;;;;;;;;;;10.80;99.90;;;;;;5033128;28;19905;-69
2024/03/19 00:04:01;;;;;;;;;;;10.70;98.80;;;;;;5033047;28;20003;-69
2024/03/19 00:06:27;;;;;;;;;;;10.60;99.90;;;;;;5032529;28;20442;-68
2024/03/19 00:08:52;;;;;;;;;;;10.70;99.90;;;;;;5032945;28;19905;-68
2024/03/19 00:11:22;;;;;;;;;;;10.70;99.90;;;;;;5032869;28;20372;-68
2024/03/19 00:13:48;;;;;;;;;;;10.70;99.90;;;;;;5032922;28;19959;-68
2024/03/19 00:16:14;;;;;;;;;;;10.80;99.90;;;;;;5032553;28;19905;-68
2024/03/19 00:18:39;;;;;;;;;;;10.70;99.90;;;;;;5032794;28;19909;-69
2024/03/19 00:21:04;;;;;;;;;;;10.70;99.90;;;;;;5032722;28;19915;-69
2024/03/19 00:23:30;;;;;;;;;;;10.70;99.90;;;;;;5032882;28;19905;-69
2024/03/19 00:25:56;;;;;;;;;;;10.70;99.90;;;;;;5032429;28;20376;-69
2024/03/19 00:28:21;;;;;;;;;;;10.70;99.90;;;;;;5032650;28;20346;-69
2024/03/19 00:30:49;;;;;;;;;;;10.70;99.90;;;;;;5032651;28;19951;-69
2024/03/19 00:33:15;;;;;;;;;;;10.70;99.90;;;;;;5032510;28;19971;-68
2024/03/19 00:35:44;;;;;;;;;;;10.70;99.90;;;;;;5032163;28;19909;-69
2024/03/19 00:38:10;;;;;;;;;;;10.70;99.90;;;;;;5032471;28;20007;-69
2024/03/19 00:40:35;;;;;;;;;;;10.70;99.90;;;;;;5032453;28;19952;-69
2024/03/19 00:43:03;;;;;;;;;;;10.80;99.90;;;;;;5032385;28;19906;-69
2024/03/19 00:45:29;;;;;;;;;;;10.90;99.90;;;;;;5032174;28;20372;-69
2024/03/19 00:47:54;;;;;;;;;;;11.00;99.90;;;;;;5032381;28;19905;-69
2024/03/19 00:50:20;;;;;;;;;;;11.00;99.90;;;;;;5032363;28;19908;-69
2024/03/19 00:52:45;;;;;;;;;;;11.00;99.90;;;;;;5032206;28;19909;-69
2024/03/19 00:55:10;;;;;;;;;;;10.80;99.90;;;;;;5031954;28;19955;-69
2024/03/19 00:57:36;;;;;;;;;;;11.00;99.90;;;;;;5032314;28;20384;-69
2024/03/19 01:00:10;;;;;;;;;;;11.00;99.90;;;;;;5032213;28;19906;-69
2024/03/19 01:02:39;;;;;;;;;;;10.90;99.90;;;;;;5032145;28;19905;-69
2024/03/19 01:05:08;;;;;;;;;;;10.60;99.90;;;;;;5031842;28;19905;-69
2024/03/19 01:07:37;;;;;;;;;;;10.80;99.90;;;;;;5033790;28;19978;-69
2024/03/19 01:10:03;;;;;;;;;;;10.70;99.90;;;;;;5036348;28;19951;-68
2024/03/19 01:12:28;;;;;;;;;;;10.50;99.90;;;;;;5036115;28;20364;-69
2024/03/19 01:14:55;;;;;;;;;;;10.40;99.90;;;;;;5035917;28;19912;-69
2024/03/19 01:17:20;;;;;;;;;;;10.30;99.90;;;;;;5036076;28;19909;-69
2024/03/19 01:19:46;;;;;;;;;;;10.40;99.90;;;;;;5036060;28;20327;-69
2024/03/19 01:22:11;;;;;;;;;;;10.40;99.90;;;;;;5036041;28;19905;-69
2024/03/19 01:24:37;;;;;;;;;;;10.40;99.90;;;;;;5035928;28;19905;-69
2024/03/19 01:27:04;;;;;;;;;;;10.40;99.90;;;;;;5035659;28;19905;-68
2024/03/19 01:29:30;;;;;;;;;;;10.40;99.90;;;;;;5035830;28;19916;-68
2024/03/19 01:31:56;;;;;;;;;;;10.40;99.90;;;;;;5035843;28;19909;-68
2024/03/19 01:34:21;;;;;;;;;;;10.40;99.90;;;;;;5035965;28;19911;-68
2024/03/19 01:36:46;;;;;;;;;;;10.40;99.90;;;;;;5035454;28;20299;-68
2024/03/19 01:39:13;;;;;;;;;;;10.40;99.90;;;;;;5035661;28;19912;-68
2024/03/19 01:41:39;;;;;;;;;;;10.60;99.90;;;;;;5035702;28;19991;-68
2024/03/19 01:44:07;;;;;;;;;;;10.60;99.90;;;;;;5035657;28;19909;-68
2024/03/19 01:46:32;;;;;;;;;;;10.60;99.90;;;;;;5035294;28;19905;-68
2024/03/19 01:48:58;;;;;;;;;;;10.60;99.90;;;;;;5035518;28;19911;-68
2024/03/19 01:51:25;;;;;;;;;;;10.60;99.90;;;;;;5035700;28;19963;-68
2024/03/19 01:53:51;;;;;;;;;;;10.60;99.90;;;;;;5035539;28;19939;-68
2024/03/19 01:56:17;;;;;;;;;;;10.60;99.90;;;;;;5035145;28;19905;-68
2024/03/19 01:58:44;;;;;;;;;;;10.50;99.90;;;;;;5035422;28;20287;-68
2024/03/19 02:01:10;;;;;;;;;;;10.40;99.90;;;;;;5035259;28;19951;-68
2024/03/19 02:03:37;;;;;;;;;;;10.40;99.90;;;;;;5035306;28;19951;-68
2024/03/19 02:06:02;;;;;;;;;;;10.40;99.90;;;;;;5034945;28;19913;-68
2024/03/19 02:08:28;;;;;;;;;;;10.30;99.90;;;;;;5035104;28;19905;-68
2024/03/19 02:10:54;;;;;;;;;;;10.30;99.90;;;;;;5035199;28;19955;-68
2024/03/19 02:13:19;;;;;;;;;;;10.30;99.90;;;;;;5035044;28;20392;-68
2024/03/19 02:15:46;;;;;;;;;;;10.30;99.90;;;;;;5034764;28;19905;-68
2024/03/19 02:18:13;;;;;;;;;;;10.20;99.90;;;;;;5035273;28;20308;-68
2024/03/19 02:20:38;;;;;;;;;;;10.20;99.90;;;;;;5034936;28;19905;-68
2024/03/19 02:23:04;;;;;;;;;;;10.20;99.90;;;;;;5034852;28;19911;-68
2024/03/19 02:25:29;;;;;;;;;;;10.20;99.90;;;;;;5034721;28;19912;-68
2024/03/19 02:27:55;;;;;;;;;;;10.30;99.90;;;;;;5034802;28;19905;-68
2024/03/19 02:30:20;;;;;;;;;;;10.30;99.90;;;;;;5034807;28;19905;-68
2024/03/19 02:32:46;;;;;;;;;;;10.30;99.90;;;;;;5034949;28;20388;-68
2024/03/19 02:35:11;;;;;;;;;;;10.20;99.90;;;;;;5034404;28;19905;-68
2024/03/19 02:37:37;;;;;;;;;;;10.40;99.90;;;;;;5034674;28;20383;-68
2024/03/19 02:40:05;;;;;;;;;;;10.40;99.90;;;;;;5034741;28;19905;-68
2024/03/19 02:42:31;;;;;;;;;;;10.50;99.90;;;;;;5034535;28;19909;-68
2024/03/19 02:44:56;;;;;;;;;;;10.30;99.90;;;;;;5034131;28;20373;-68
2024/03/19 02:47:22;;;;;;;;;;;10.50;99.90;;;;;;5034528;28;19912;-68
2024/03/19 02:49:47;;;;;;;;;;;10.50;99.90;;;;;;5034566;28;20385;-69
2024/03/19 02:52:13;;;;;;;;;;;10.50;99.90;;;;;;5034251;28;19996;-68
2024/03/19 02:54:38;;;;;;;;;;;10.50;99.90;;;;;;5034294;28;20288;-68
2024/03/19 02:57:04;;;;;;;;;;;10.50;99.90;;;;;;5033971;28;19909;-68
2024/03/19 02:59:29;;;;;;;;;;;10.40;99.90;;;;;;5034282;28;19909;-69
2024/03/19 03:01:56;;;;;;;;;;;10.40;99.90;;;;;;5034566;28;19912;-69
2024/03/19 03:04:22;;;;;;;;;;;10.40;99.90;;;;;;5034291;28;19904;-69
2024/03/19 03:06:47;;;;;;;;;;;10.40;99.90;;;;;;5033716;28;20441;-69
2024/03/19 03:09:13;;;;;;;;;;;10.30;99.90;;;;;;5034121;28;19967;-69
2024/03/19 03:11:38;;;;;;;;;;;10.30;99.90;;;;;;5033990;28;19915;-69
2024/03/19 03:14:04;;;;;;;;;;;10.30;99.90;;;;;;5033885;28;19909;-69
2024/03/19 03:16:29;;;;;;;;;;;10.30;99.90;;;;;;5033821;28;19909;-69
2024/03/19 03:18:55;;;;;;;;;;;10.30;99.90;;;;;;5034071;28;19944;-69
2024/03/19 03:21:20;;;;;;;;;;;10.30;99.90;;;;;;5033897;28;20395;-69
2024/03/19 03:23:46;;;;;;;;;;;10.30;99.90;;;;;;5033864;28;19959;-69
2024/03/19 03:26:11;;;;;;;;;;;10.20;99.90;;;;;;5033644;28;19905;-69
2024/03/19 03:28:36;;;;;;;;;;;10.10;99.90;;;;;;5034306;28;20306;-69
2024/03/19 03:31:03;;;;;;;;;;;10.10;99.90;;;;;;5033255;28;19999;-69
2024/03/19 03:33:29;;;;;;;;;;;10.10;99.90;;;;;;5033948;28;20360;-69
2024/03/19 03:35:54;;;;;;;;;;;10.00;99.90;;;;;;5033483;28;19912;-69
2024/03/19 03:38:20;;;;;;;;;;;10.00;99.90;;;;;;5033581;28;19909;-69
2024/03/19 03:40:46;;;;;;;;;;;10.00;99.90;;;;;;5033577;28;19959;-69
2024/03/19 03:43:12;;;;;;;;;;;9.90;99.90;;;;;;5033323;28;20029;-69
2024/03/19 03:45:39;;;;;;;;;;;10.00;99.90;;;;;;5033092;28;19959;-69
2024/03/19 03:48:06;;;;;;;;;;;10.00;99.90;;;;;;5033650;28;20351;-69
2024/03/19 03:50:32;;;;;;;;;;;10.00;99.90;;;;;;5033356;28;19944;-69
2024/03/19 03:52:57;;;;;;;;;;;10.00;99.90;;;;;;5033149;28;20352;-69
2024/03/19 03:55:23;;;;;;;;;;;10.00;99.90;;;;;;5032930;28;19904;-69
2024/03/19 03:57:49;;;;;;;;;;;10.00;99.90;;;;;;5033184;28;19905;-69
2024/03/19 04:00:17;;;;;;;;;;;10.00;99.90;;;;;;5033277;28;19951;-69
2024/03/19 04:02:44;;;;;;;;;;;10.00;99.90;;;;;;5033019;28;19928;-69
2024/03/19 04:05:10;;;;;;;;;;;9.80;99.90;;;;;;5032512;28;20004;-69
2024/03/19 04:07:39;;;;;;;;;;;9.90;99.90;;;;;;5033295;28;19916;-69
2024/03/19 04:10:05;;;;;;;;;;;10.00;99.90;;;;;;5032925;28;19932;-68
2024/03/19 04:12:31;;;;;;;;;;;9.90;99.90;;;;;;5032773;28;20437;-70
2024/03/19 04:14:57;;;;;;;;;;;;;;;;;;5032582;28;19999;-69
2024/03/19 04:17:22;;;;;;;;;;;9.80;99.90;;;;;;5033019;28;19995;-69
2024/03/19 04:19:47;;;;;;;;;;;9.80;99.90;;;;;;5032735;28;19905;-69
2024/03/19 04:22:13;;;;;;;;;;;9.80;99.90;;;;;;5032785;28;19920;-69
2024/03/19 04:24:38;;;;;;;;;;;9.80;99.90;;;;;;5032623;28;19967;-69
2024/03/19 04:27:04;;;;;;;;;;;9.70;99.90;;;;;;5032298;28;20005;-69
2024/03/19 04:29:29;;;;;;;;;;;9.60;99.90;;;;;;5032836;28;20309;-69
2024/03/19 04:31:55;;;;;;;;;;;9.60;99.90;;;;;;5032699;28;20348;-69
2024/03/19 04:34:21;;;;;;;;;;;9.50;99.90;;;;;;5032587;28;19909;-69
2024/03/19 04:36:47;;;;;;;;;;;9.50;99.90;;;;;;5032320;28;19959;-69
2024/03/19 04:39:14;;;;;;;;;;;9.40;99.90;;;;;;5032504;28;20510;-69
2024/03/19 04:41:39;;;;;;;;;;;9.30;99.90;;;;;;5031638;28;19913;-69
2024/03/19 04:44:05;;;;;;;;;;;9.30;99.90;;;;;;5032338;28;20414;-69
2024/03/19 04:46:31;;;;;;;;;;;9.20;99.90;;;;;;5032090;28;20347;-69
2024/03/19 04:48:57;;;;;;;;;;;9.20;99.90;;;;;;5032418;28;19905;-69
2024/03/19 04:51:23;;;;;;;;;;;9.20;99.90;;;;;;5032296;28;19909;-68
2024/03/19 04:53:48;;;;;;;;;;;9.20;99.90;;;;;;5032304;28;20296;-69
2024/03/19 04:56:14;;;;;;;;;;;9.10;99.90;;;;;;5031959;28;19993;-69
2024/03/19 04:58:39;;;;;;;;;;;9.10;99.90;;;;;;5032312;28;19916;-69
2024/03/19 05:01:05;;;;;;;;;;;9.10;99.90;;;;;;5032394;28;20388;-69
2024/03/19 05:03:31;;;;;;;;;;;9.10;99.90;;;;;;5032167;28;20284;-69
2024/03/19 05:05:56;;;;;;;;;;;9.10;99.90;;;;;;5031808;28;20007;-69
2024/03/19 05:08:22;;;;;;;;;;;9.20;99.90;;;;;;5032272;28;19909;-69
2024/03/19 05:10:49;;;;;;;;;;;9.30;99.90;;;;;;5032316;28;19967;-69
2024/03/19 05:13:14;;;;;;;;;;;9.40;99.90;;;;;;5032326;28;19909;-69
2024/03/19 05:15:40;;;;;;;;;;;9.50;99.90;;;;;;5031811;28;20257;-69
2024/03/19 05:18:06;;;;;;;;;;;9.50;99.90;;;;;;5032191;28;19913;-69
2024/03/19 05:20:31;;;;;;;;;;;9.50;99.90;;;;;;5032085;28;19940;-69
2024/03/19 05:22:57;;;;;;;;;;;9.50;99.90;;;;;;5032091;28;19948;-68
2024/03/19 05:25:22;;;;;;;;;;;9.50;99.90;;;;;;5031655;28;19951;-68
2024/03/19 05:27:48;;;;;;;;;;;9.50;99.90;;;;;;5032020;28;20351;-68
2024/03/19 05:30:13;;;;;;;;;;;9.60;99.90;;;;;;5032082;28;19909;-68
2024/03/19 05:32:39;;;;;;;;;;;9.60;99.90;;;;;;5031907;28;19913;-68
2024/03/19 05:35:06;;;;;;;;;;;10.00;99.90;;;;;;5031716;28;19915;-68
2024/03/19 05:37:31;;;;;;;;;;;9.60;99.90;;;;;;5031993;28;19905;-68
2024/03/19 05:39:57;;;;;;;;;;;9.60;99.90;;;;;;5031920;28;19959;-68
2024/03/19 05:42:22;;;;;;;;;;;9.60;99.90;;;;;;5031884;28;19927;-67
2024/03/19 05:44:49;;;;;;;;;;;9.60;99.90;;;;;;5031656;28;19959;-68
2024/03/19 05:47:15;;;;;;;;;;;9.50;99.90;;;;;;5031703;28;19905;-68
2024/03/19 05:49:41;;;;;;;;;;;9.50;99.90;;;;;;5031815;28;19905;-68
2024/03/19 05:52:08;;;;;;;;;;;9.60;99.90;;;;;;5031730;28;19932;-68
2024/03/19 05:54:33;;;;;;;;;;;9.50;99.90;;;;;;5034301;28;19935;-67
2024/03/19 05:56:59;;;;;;;;;;;9.40;99.90;;;;;;5035157;28;19908;-68
2024/03/19 05:59:24;;;;;;;;;;;9.50;99.90;;;;;;5035267;28;19948;-68
2024/03/19 06:01:50;;;;;;;;;;;9.40;99.90;;;;;;5035321;28;19959;-68
2024/03/19 06:04:16;;;;;;;;;;;9.40;99.90;;;;;;5035288;28;19909;-68
2024/03/19 06:06:42;;;;;;;;;;;9.40;99.90;;;;;;5034906;28;20058;-68
2024/03/19 06:09:07;;;;;;;;;;;9.40;99.90;;;;;;5035240;28;19905;-68
2024/03/19 06:11:33;;;;;;;;;;;9.40;99.90;;;;;;5035242;28;19909;-68
2024/03/19 06:13:58;;;;;;;;;;;9.40;99.90;;;;;;5035242;28;19980;-68
2024/03/19 06:16:24;;;;;;;;;;;9.50;99.90;;;;;;5034751;28;20046;-68
2024/03/19 06:18:49;;;;;;;;;;;9.50;99.90;;;;;;5035034;28;19909;-68
2024/03/19 06:21:15;;;;;;;;;;;9.60;99.90;;;;;;5034973;28;19920;-68
2024/03/19 06:23:41;;;;;;;;;;;9.60;99.90;;;;;;5034816;28;20365;-68
2024/03/19 06:26:07;;;;;;;;;;;9.60;99.90;;;;;;5034618;28;19905;-68
2024/03/19 06:28:32;;;;;;;;;;;9.80;99.90;;;;;;5034946;28;19912;-67
2024/03/19 06:30:58;;;;;;;;;;;9.80;99.90;;;;;;5034805;28;19936;-67
2024/03/19 06:33:23;;;;;;;;;;;9.90;99.90;;;;;;5034596;28;20320;-67
2024/03/19 06:35:50;;;;;;;;;;;9.90;99.90;;;;;;5034369;28;19909;-68
2024/03/19 06:38:16;;;;;;;;;;;9.90;99.90;;;;;;5034648;28;20003;-68
2024/03/19 06:40:42;;;;;;;;;;;9.90;99.90;;;;;;5034804;28;19945;-68
2024/03/19 06:43:07;;;;;;;;;;;10.00;99.90;;;;;;5034553;28;19905;-68
2024/03/19 06:45:33;;;;;;;;;;;10.00;99.90;;;;;;5034224;28;19978;-68
2024/03/19 06:47:58;;;;;;;;;;;10.00;99.90;;;;;;5034458;28;19905;-68
2024/03/19 06:50:24;;;;;;;;;;;9.90;99.90;;;;;;5034509;28;19905;-68
2024/03/19 06:52:50;;;;;;;;;;;9.90;99.90;;;;;;5034211;28;19917;-69
2024/03/19 06:55:16;;;;;;;;;;;9.90;99.90;;;;;;5034187;28;19912;-68
2024/03/19 06:57:42;;;;;;;;;;;10.00;99.90;;;;;;5034315;28;20373;-68
2024/03/19 07:00:13;;;;;;;;;;;10.10;99.90;;;;;;5034345;28;19984;-69
2024/03/19 07:02:42;;;;;;;;;;;10.10;99.90;;;;;;5034273;28;20043;-68
2024/03/19 07:05:08;;;;;;;;;;;9.90;99.90;;;;;;5032764;28;19905;-68
2024/03/19 07:07:35;;;;;;;;;;;10.10;99.90;;;;;;5034097;28;19913;-68
2024/03/19 07:10:01;;;;;;;;;;;10.20;99.90;;;;;;5034171;28;19905;-68
2024/03/19 07:12:27;;;;;;;;;;;10.20;99.90;;;;;;5034499;28;19909;-69
2024/03/19 07:14:53;;;;;;;;;;;10.20;99.90;;;;;;5035120;28;19947;-69
2024/03/19 07:17:19;;;;;;;;;;;10.20;99.90;;;;;;5035676;28;19908;-68
2024/03/19 07:19:44;;;;;;;;;;;10.30;99.90;;;;;;5035302;28;19905;-68
2024/03/19 07:22:10;;;;;;;;;;;10.40;99.90;;;;;;5035639;28;19951;-68
2024/03/19 07:24:36;;;;;;;;;;;10.40;99.90;;;;;;5035159;28;19905;-69
2024/03/19 07:27:01;;;;;;;;;;;10.50;99.90;;;;;;5034732;28;19905;-68
2024/03/19 07:29:27;;;;;;;;;;;10.60;99.90;;;;;;5035539;28;19905;-68
2024/03/19 07:31:54;;;;;;;;;;;10.70;99.90;;;;;;5035417;28;20002;-68
2024/03/19 07:34:19;;;;;;;;;;;10.80;99.90;;;;;;5034634;28;19916;-69
2024/03/19 07:36:45;;;;;;;;;;;10.90;99.90;;;;;;5033289;28;19905;-69
2024/03/19 07:39:13;;;;;;;;;;;10.90;99.90;;;;;;5033548;28;19920;-68
2024/03/19 07:41:39;;;;;;;;;;;11.00;99.90;;;;;;5033594;28;20637;-68
2024/03/19 07:44:05;;;;;;;;;;;10.90;99.90;;;;;;5033437;28;19905;-68
2024/03/19 07:46:31;;;;;;;;;;;11.00;99.90;;;;;;5032994;28;19944;-68
2024/03/19 07:48:57;;;;;;;;;;;11.00;99.90;;;;;;5033223;28;19955;-69
2024/03/19 07:51:22;;;;;;;;;;;11.00;99.90;;;;;;5033314;28;19912;-68
2024/03/19 07:53:48;;;;;;;;;;;11.20;99.90;;;;;;5033390;28;19904;-68
2024/03/19 07:56:13;;;;;;;;;;;11.20;99.90;;;;;;5033019;28;19932;-68
2024/03/19 07:58:39;;;;;;;;;;;11.30;99.90;;;;;;5033131;28;19909;-68
2024/03/19 08:01:07;;;;;;;;;;;11.40;99.90;;;;;;5033026;28;19912;-68
2024/03/19 08:03:33;;;;;;;;;;;11.40;99.90;;;;;;5032936;28;19905;-68
2024/03/19 08:05:59;;;;;;;;;;;11.50;99.90;;;;;;5032566;28;20361;-68
2024/03/19 08:08:24;;;;;;;;;;;11.50;99.90;;;;;;5032960;28;19912;-68
2024/03/19 08:10:50;;;;;;;;;;;11.50;99.90;;;;;;5032873;28;20390;-68
2024/03/19 08:13:15;;;;;;;;;;;11.60;99.90;;;;;;5032808;28;19916;-68
2024/03/19 08:15:41;;;;;;;;;;;11.60;99.90;;;;;;5032367;28;19912;-68
2024/03/19 08:18:08;;;;;;;;;;;11.70;1.00;;;;;;5032764;28;19905;-68
2024/03/19 08:20:35;;;;;;;;;;;11.70;99.90;;;;;;5032943;28;19928;-68
2024/03/19 08:23:01;;;;;;;;;;;11.80;99.90;;;;;;5033410;28;19905;-68
2024/03/19 08:25:27;;;;;;;;;;;11.80;1.90;;;;;;5033201;28;19912;-68
2024/03/19 08:27:52;;;;;;;;;;;11.80;89.90;;;;;;5033644;28;20352;-69
2024/03/19 08:30:19;;;;;;;;;;;11.80;99.90;;;;;;5033237;28;19912;-69
2024/03/19 08:32:45;;;;;;;;;;;11.90;1.00;;;;;;5033397;28;19916;-68
2024/03/19 08:35:11;;;;;;;;;;;11.80;1.00;;;;;;5033225;28;19905;-69
2024/03/19 08:37:36;;;;;;;;;;;12.10;1.00;;;;;;5038729;28;19908;-68
2024/03/19 08:40:05;;;;;;;;;;;12.00;1.00;;;;;;5049021;28;19908;-68
2024/03/19 08:42:34;;;;;;;;;;;12.10;1.00;;;;;;5053289;28;19904;-69
2024/03/19 08:45:00;;;;;;;;;;;12.40;99.90;;;;;;5037803;28;19981;-67
2024/03/19 08:47:26;;;;;;;;;;;12.20;99.90;;;;;;5033275;28;19905;-69
2024/03/19 08:49:52;;;;;;;;;;;12.30;1.00;;;;;;5033246;28;19905;-67
2024/03/19 08:52:17;;;;;;;;;;;12.30;1.00;;;;;;5032443;28;19915;-68
2024/03/19 08:54:43;;;;;;;;;;;12.50;1.00;;;;;;5033576;28;19909;-68
2024/03/19 08:57:11;;;;;;;;;;;12.60;1.00;;;;;;5032406;28;19908;-68
2024/03/19 08:59:37;;;;;;;;;;;12.70;1.00;;;;;;5032114;28;20382;-68
2024/03/19 09:02:07;;;;;;;;;;;12.90;1.00;;;;;;5032425;28;20319;-67
2024/03/19 09:04:34;;;;;;;;;;;13.00;1.00;;;;;;5031352;28;19911;-68
2024/03/19 09:07:00;;;;;;;;;;;13.20;99.90;;;;;;5031347;28;19913;-68
2024/03/19 09:09:26;;;;;;;;;;;13.50;99.90;;;;;;5032909;28;19921;-68
2024/03/19 09:11:51;;;;;;;;;;;13.70;1.00;;;;;;5031906;28;19963;-68
2024/03/19 09:14:20;;;;;;;;;;;13.80;1.00;;;;;;5031930;28;19927;-67
2024/03/19 09:16:45;;;;;;;;;;;14.00;99.90;;;;;;5031824;28;19944;-67
2024/03/19 09:19:11;;;;;;;;;;;14.20;1.00;;;;;;5034658;28;19912;-69
2024/03/19 09:21:36;;;;;;;;;;;14.30;99.90;;;;;;5032295;28;19913;-68
2024/03/19 09:24:02;;;;;;;;;;;14.50;53.50;;;;;;5032062;28;20381;-68
2024/03/19 09:26:30;;;;;;;;;;;14.60;1.00;;;;;;5031776;28;19912;-68
2024/03/19 09:28:56;;;;;;;;;;;14.50;43.80;;;;;;5036077;28;19917;-67
2024/03/19 09:31:22;;;;;;;;;;;14.30;39.10;;;;;;5046391;28;20702;-68
2024/03/19 09:33:48;;;;;;;;;;;14.30;46.90;;;;;;5043577;28;20005;-68
2024/03/19 09:36:13;;;;;;;;;;;14.30;44.40;;;;;;5035194;28;19908;-68
2024/03/19 09:38:39;;;;;;;;;;;14.30;48.70;;;;;;5036070;28;19932;-68
2024/03/19 09:41:05;;;;;;;;;;;14.40;47.30;;;;;;5036019;28;19905;-68
2024/03/19 09:43:32;;;;;;;;;;;14.60;43.30;;;;;;5035216;28;19909;-68
2024/03/19 09:45:58;;;;;;;;;;;14.70;44.00;;;;;;5039532;28;19958;-68
2024/03/19 09:48:24;;;;;;;;;;;15.00;42.70;;;;;;5047180;28;19931;-68
2024/03/19 09:50:51;;;;;;;;;;;15.20;29.50;;;;;;5055770;28;19912;-68
2024/03/19 09:53:21;;;;;;;;;;;15.20;23.60;;;;;;5056046;28;19908;-68
2024/03/19 09:55:47;;;;;;;;;;;15.40;21.40;;;;;;5055110;28;19946;-68
2024/03/19 09:58:13;;;;;;;;;;;15.40;23.60;;;;;;5054529;28;20380;-68
2024/03/19 10:00:43;;;;;;;;;;;15.50;19.80;;;;;;5055183;28;19919;-68
2024/03/19 10:03:08;;;;;;;;;;;15.60;9.50;;;;;;5050872;28;19905;-68
2024/03/19 10:05:34;;;;;;;;;;;15.70;11.00;;;;;;5044000;28;19958;-68
2024/03/19 10:07:59;;;;;;;;;;;15.80;8.60;;;;;;5047058;28;19917;-68
2024/03/19 10:10:26;;;;;;;;;;;16.10;11.60;;;;;;5037826;28;19999;-68
2024/03/19 10:12:51;;;;;;;;;;;16.30;3.10;;;;;;5034599;28;19909;-68
2024/03/19 10:15:18;;;;;;;;;;;16.60;14.60;;;;;;5034915;28;19912;-68
2024/03/19 10:17:44;;;;;;;;;;;16.60;1.00;;;;;;5035360;28;19905;-69
2024/03/19 10:20:11;;;;;;;;;;;16.70;1.00;;;;;;5034301;28;19905;-68
2024/03/19 10:22:37;;;;;;;;;;;16.80;1.00;;;;;;5035085;28;20295;-68
2024/03/19 10:25:04;;;;;;;;;;;16.90;1.00;;;;;;5034705;28;19999;-68
2024/03/19 10:27:29;;;;;;;;;;;16.90;1.00;;;;;;5035192;28;19913;-68
2024/03/19 10:29:56;;;;;;;;;;;17.10;1.00;;;;;;5034784;28;19905;-68
2024/03/19 10:32:22;;;;;;;;;;;17.30;1.00;;;;;;5034845;28;19909;-69
2024/03/19 10:34:49;;;;;;;;;;;17.40;1.00;;;;;;5035023;28;19905;-69
2024/03/19 10:37:16;;;;;;;;;;;17.40;1.00;;;;;;5034369;28;19905;-68
2024/03/19 10:39:43;;;;;;;;;;;17.40;1.00;;;;;;5034566;28;19919;-68
2024/03/19 10:42:10;;;;;;;;;;;17.30;1.00;;;;;;5034899;28;19909;-68
2024/03/19 10:44:37;;;;;;;;;;;17.40;1.00;;;;;;5034082;28;19912;-68
2024/03/19 10:47:05;;;;;;;;;;;17.50;1.00;;;;;;5034293;28;19963;-68
2024/03/19 10:49:32;;;;;;;;;;;17.60;1.00;;;;;;5034817;28;19905;-68
2024/03/19 10:52:05;;;;;;;;;;;17.80;1.00;;;;;;5034178;28;19909;-68
2024/03/19 10:54:32;;;;;;;;;;;17.70;1.00;;;;;;5034455;28;19905;-68
2024/03/19 10:56:58;;;;;;;;;;;17.80;1.00;;;;;;5034167;28;20355;-68
2024/03/19 10:59:23;;;;;;;;;;;17.80;1.00;;;;;;5034059;28;20000;-69
2024/03/19 11:01:52;;;;;;;;;;;17.70;1.00;;;;;;5034389;28;19916;-68
2024/03/19 11:04:22;;;;;;;;;;;17.70;1.00;;;;;;5034635;28;20372;-68
2024/03/19 11:06:55;;;;;;;;;;;17.70;1.00;;;;;;5034944;28;19956;-68
2024/03/19 11:09:22;;;;;;;;;;;18.00;1.00;;;;;;5034378;28;19948;-68
2024/03/19 11:12:07;;;;;;;;;;;18.20;1.00;;;;;;5034813;28;20426;-69
2024/03/19 11:14:33;;;;;;;;;;;18.40;1.00;;;;;;5035689;28;20328;-68
2024/03/19 11:17:03;;;;;;;;;;;18.60;1.00;;;;;;5034719;28;19955;-68
2024/03/19 11:19:30;;;;;;;;;;;18.60;1.00;;;;;;5032697;28;19995;-69
2024/03/19 11:21:59;;;;;;;;;;;18.30;1.00;;;;;;5033387;28;19994;-68
2024/03/19 11:24:26;;;;;;;;;;;18.30;1.00;;;;;;5033159;28;19905;-68
2024/03/19 11:27:02;;;;;;;;;;;18.20;1.00;;;;;;5032934;28;19905;-68
2024/03/19 11:29:28;;;;;;;;;;;18.20;1.00;;;;;;5039274;28;20364;-68
2024/03/19 11:31:57;;;;;;;;;;;18.10;1.00;;;;;;5033673;28;20032;-68
2024/03/19 11:34:23;;;;;;;;;;;18.30;1.00;;;;;;5033474;28;20427;-69
2024/03/19 11:36:49;;;;;;;;;;;18.40;1.00;;;;;;5033232;28;19952;-69
2024/03/19 11:39:15;;;;;;;;;;;18.50;1.00;;;;;;5034654;28;20423;-68
2024/03/19 11:41:41;;;;;;;;;;;18.70;1.00;;;;;;5033364;28;19912;-68
2024/03/19 11:44:12;;;;;;;;;;;18.80;1.00;;;;;;5033573;28;20361;-68
2024/03/19 11:46:38;;;;;;;;;;;18.80;1.00;;;;;;5033066;28;20463;-68
2024/03/19 11:49:03;;;;;;;;;;;18.80;1.00;;;;;;5032320;28;20008;-68
2024/03/19 11:51:29;;;;;;;;;;;18.90;1.00;;;;;;5032887;28;19943;-68
2024/03/19 11:54:01;;;;;;;;;;;18.90;1.00;;;;;;5033256;28;19905;-68
2024/03/19 11:56:27;;;;;;;;;;;19.20;1.00;;;;;;5032548;28;20400;-68
2024/03/19 11:58:53;;;;;;;;;;;19.60;1.00;;;;;;5033457;28;19905;-68
2024/03/19 12:01:19;;;;;;;;;;;20.10;1.00;;;;;;5033352;28;19905;-68
2024/03/19 12:03:45;;;;;;;;;;;20.50;1.00;;;;;;5033253;28;19950;-68
2024/03/19 12:06:11;;;;;;;;;;;21.20;1.00;;;;;;5032701;28;19921;-69
2024/03/19 12:08:36;;;;;;;;;;;21.70;1.00;;;;;;5033263;28;19912;-69
2024/03/19 12:11:02;;;;;;;;;;;22.00;1.00;;;;;;5033515;28;19911;-68
2024/03/19 12:13:28;;;;;;;;;;;21.90;1.00;;;;;;5032510;28;19909;-69
2024/03/19 12:15:54;;;;;;;;;;;22.10;1.00;;;;;;5032868;28;20315;-68
2024/03/19 12:18:19;;;;;;;;;;;22.20;1.00;;;;;;5032937;28;20359;-68
2024/03/19 12:20:45;;;;;;;;;;;22.20;1.00;;;;;;5032542;28;19905;-69
2024/03/19 12:23:11;;;;;;;;;;;22.40;1.00;;;;;;5033220;28;19928;-69
2024/03/19 12:25:37;;;;;;;;;;;22.80;1.00;;;;;;5032965;28;19905;-68
2024/03/19 12:28:03;;;;;;;;;;;23.10;1.00;;;;;;5032814;28;19916;-69
2024/03/19 12:30:30;;;;;;;;;;;23.50;1.00;;;;;;5033302;28;20317;-68
2024/03/19 12:35:30;;;;;;;;;;;23.00;1.00;;;;;;5032377;28;19905;-68
2024/03/19 12:37:56;;;;;;;;;;;23.20;1.00;;;;;;5033149;28;19909;-66
2024/03/19 12:40:23;;;;;;;;;;;23.70;1.00;;;;;;5033642;28;20004;-66
2024/03/19 12:42:49;;;;;;;;;;;24.00;1.00;;;;;;5032813;28;19909;-69
2024/03/19 12:45:15;;;;;;;;;;;24.40;1.00;;;;;;5033154;28;19927;-68
2024/03/19 12:47:44;;;;;;;;;;;24.30;1.00;;;;;;5032884;28;19912;-69
2024/03/19 12:50:10;;;;;;;;;;;24.60;1.00;;;;;;5032442;28;19908;-69
2024/03/19 12:52:36;;;;;;;;;;;25.20;1.00;;;;;;5033825;28;19909;-69
2024/03/19 12:55:02;;;;;;;;;;;26.30;1.00;;;;;;5033551;28;20055;-69
2024/03/19 12:57:27;;;;;;;;;;;25.90;1.00;;;;;;5033187;28;20007;-69
2024/03/19 12:59:53;;;;;;;;;;;26.20;1.00;;;;;;5033169;28;19905;-69
2024/03/19 13:02:18;;;;;;;;;;;26.40;1.00;;;;;;5033513;28;19909;-69
2024/03/19 13:04:44;;;;;;;;;;;26.00;1.00;;;;;;5036063;28;19932;-68
2024/03/19 13:07:09;;;;;;;;;;;25.90;1.00;;;;;;5036285;28;19996;-66
2024/03/19 13:09:35;;;;;;;;;;;26.30;1.00;;;;;;5037483;28;19959;-66
2024/03/19 13:12:00;;;;;;;;;;;26.90;1.00;;;;;;5038181;28;20019;-66
2024/03/19 13:14:26;;;;;;;;;;;26.50;1.00;;;;;;5039931;28;20257;-66
2024/03/19 13:16:52;;;;;;;;;;;26.50;1.00;;;;;;5040139;28;19905;-66
2024/03/19 13:19:18;;;;;;;;;;;26.40;1.00;;;;;;5038448;28;19927;-66
2024/03/19 13:21:43;;;;;;;;;;;26.10;1.00;;;;;;5037012;28;19920;-66
2024/03/19 13:24:09;;;;;;;;;;;26.00;1.00;;;;;;5037445;28;19912;-69
2024/03/19 13:26:35;;;;;;;;;;;26.50;1.00;;;;;;5035302;28;20386;-70
2024/03/19 13:29:00;;;;;;;;;;;27.00;1.00;;;;;;5036612;28;19936;-68
2024/03/19 13:31:26;;;;;;;;;;;27.40;1.00;;;;;;5035934;28;19908;-66
2024/03/19 13:33:52;;;;;;;;;;;27.60;1.00;;;;;;5036261;28;20349;-66
2024/03/19 13:36:17;;;;;;;;;;;27.70;1.00;;;;;;5035748;28;19905;-66
2024/03/19 13:38:48;;;;;;;;;;;27.10;1.00;;;;;;5036040;28;19905;-65
2024/03/19 13:41:14;;;;;;;;;;;26.90;1.00;;;;;;5035629;28;20343;-66
2024/03/19 13:43:39;;;;;;;;;;;27.10;1.00;;;;;;5036287;28;19936;-66
2024/03/19 13:46:05;;;;;;;;;;;27.30;1.00;;;;;;5035613;28;19951;-66
2024/03/19 13:48:35;;;;;;;;;;;27.50;1.00;;;;;;5035473;28;20274;-66
2024/03/19 13:51:00;;;;;;;;;;;28.10;1.00;;;;;;5036137;28;20345;-66
2024/03/19 13:53:26;;;;;;;;;;;28.50;1.00;;;;;;5035724;28;19952;-66
2024/03/19 13:55:52;;;;;;;;;;;28.90;1.00;;;;;;5035148;28;19909;-66
2024/03/19 13:58:18;;;;;;;;;;;29.30;1.00;;;;;;5035994;28;19905;-66
2024/03/19 14:00:43;;;;;;;;;;;30.00;1.00;;;;;;5035856;28;19909;-66
2024/03/19 14:03:11;;;;;;;;;;;30.80;1.00;;;;;;5035256;28;20312;-66
2024/03/19 14:05:38;;;;;;;;;;;30.90;1.00;;;;;;5035341;28;19916;-66
2024/03/19 14:08:05;;;;;;;;;;;29.40;1.00;;;;;;5035817;28;19936;-66
2024/03/19 14:10:30;;;;;;;;;;;28.70;1.00;;;;;;5035167;28;19905;-66
2024/03/19 14:12:57;;;;;;;;;;;28.30;1.00;;;;;;5035958;28;19916;-66
2024/03/19 14:15:25;;;;;;;;;;;28.60;1.00;;;;;;5034718;28;19905;-66
2024/03/19 14:17:50;;;;;;;;;;;29.20;1.00;;;;;;5035167;28;20392;-66
2024/03/19 14:20:16;;;;;;;;;;;29.90;1.00;;;;;;5035305;28;19905;-66